Time;durP1;ratioP1;P1;durP2;ratioP2;P2;SDS_P1;SDS_P2;PMS_P1;PMS_P2;Temp;Humidity;BMP_temperature;BMP_pressure;BME280_temperature;BME280_humidity;BME280_pressure;Samples;Min_cycle;Max_cycle;Signal;HPM_P1;HPM_P2
2023/01/10 00:01:29;;;;;;;11.07;3.97;;;;;;;7.28;71.51;101156.75;5017876;28;20091;-71
2023/01/10 00:03:55;;;;;;;13.18;4.40;;;;;;;7.23;71.35;101154.69;5019500;28;20104;-72
2023/01/10 00:06:20;;;;;;;13.38;5.03;;;;;;;7.24;71.31;101166.56;5028762;28;20111;-71
2023/01/10 00:08:45;;;;;;;12.52;5.95;;;;;;;7.24;71.66;101167.41;5025795;28;20124;-72
2023/01/10 00:13:55;;;;;;;9.30;3.85;;;;;;;7.22;71.50;101179.72;5028946;28;20520;-72
2023/01/10 00:16:21;;;;;;;14.07;4.43;;;;;;;7.26;71.15;101178.22;5026818;28;20034;-71
2023/01/10 00:18:47;;;;;;;11.07;3.90;;;;;;;7.22;71.32;101183.34;5021388;28;20029;-71
2023/01/10 00:21:13;;;;;;;9.50;4.07;;;;;;;7.23;71.02;101189.69;5029416;28;20499;-71
2023/01/10 00:23:38;;;;;;;14.50;4.10;;;;;;;7.20;71.12;101192.94;5023580;28;20079;-72
2023/01/10 00:26:04;;;;;;;11.52;4.72;;;;;;;7.17;71.35;101202.50;5021417;28;20675;-72
2023/01/10 00:28:33;;;;;;;14.38;4.70;;;;;;;7.16;70.45;101203.56;5022897;28;20022;-73
2023/01/10 00:31:05;;;;;;;16.17;4.25;;;;;;;7.15;71.40;101212.88;5028815;28;20029;-76
2023/01/10 00:33:32;;;;;;;13.57;4.05;;;;;;;7.17;70.65;101224.56;5026497;28;20837;-76
2023/01/10 00:36:01;;;;;;;12.68;3.90;;;;;;;7.17;70.77;101226.50;5016279;28;20128;-76
2023/01/10 00:38:27;;;;;;;14.10;4.55;;;;;;;7.16;71.03;101220.13;5025747;28;20254;-76
2023/01/10 00:40:52;;;;;;;14.73;4.10;;;;;;;7.15;70.94;101223.94;5012606;28;20037;-76
2023/01/10 00:46:01;;;;;;;10.70;3.72;;;;;;;7.11;70.90;101229.06;5023683;28;20160;-76
2023/01/10 00:48:27;;;;;;;15.63;4.05;;;;;;;7.10;71.09;101238.41;5031675;28;20052;-76
2023/01/10 00:50:53;;;;;;;10.77;4.45;;;;;;;7.08;71.01;101229.50;5031821;28;20034;-75
2023/01/10 00:53:18;;;;;;;17.08;4.68;;;;;;;7.09;70.82;101235.88;5028183;28;20033;-76
2023/01/10 00:55:45;;;;;;;14.35;4.32;;;;;;;7.08;70.94;101231.44;5028367;28;20231;-76
2023/01/10 00:58:13;;;;;;;12.63;4.22;;;;;;;7.06;71.45;101241.84;5029167;28;20029;-76
2023/01/10 01:00:38;;;;;;;16.55;4.15;;;;;;;7.04;70.44;101239.31;5027134;28;20116;-76
2023/01/10 01:03:04;;;;;;;13.10;3.92;;;;;;;7.04;71.72;101235.69;5032553;28;20120;-76
2023/01/10 01:05:30;;;;;;;12.95;4.15;;;;;;;7.01;71.44;101234.22;5021626;28;20022;-76
2023/01/10 01:07:55;;;;;;;14.07;4.70;;;;;;;6.97;71.13;101249.53;5022588;28;20041;-76
2023/01/10 01:10:27;;;;;;;14.52;4.32;;;;;;;6.99;71.69;101247.38;5015463;28;20482;-75
2023/01/10 01:12:58;;;;;;;16.23;4.22;;;;;;;7.01;72.09;101253.53;5029501;28;20033;-76
2023/01/10 01:15:24;;;;;;;12.35;3.95;;;;;;;6.98;71.23;101256.72;5028618;28;20126;-76
2023/01/10 01:17:50;;;;;;;12.18;3.95;;;;;;;6.98;71.24;101273.28;5029932;28;20116;-77
2023/01/10 01:20:15;;;;;;;15.57;4.30;;;;;;;7.00;71.27;101275.84;5030792;28;20159;-76
2023/01/10 01:22:41;;;;;;;14.73;4.63;;;;;;;6.97;71.04;101279.88;5031341;28;20032;-76
2023/01/10 01:25:07;;;;;;;16.48;5.70;;;;;;;6.84;70.95;101278.03;5029868;28;20037;-76
2023/01/10 01:27:33;;;;;;;14.50;5.78;;;;;;;6.86;71.02;101281.41;5028531;28;20025;-76
2023/01/10 01:29:59;;;;;;;14.55;6.63;;;;;;;6.90;71.24;101287.34;5028139;28;20029;-76
2023/01/10 01:32:25;;;;;;;19.08;7.72;;;;;;;6.93;71.77;101281.38;5031689;28;20381;-76
2023/01/10 01:34:50;;;;;;;20.92;9.02;;;;;;;6.95;71.29;101294.94;5029931;28;20096;-76
2023/01/10 01:37:18;;;;;;;19.95;8.95;;;;;;;6.94;71.62;101298.78;5028694;28;20309;-76
2023/01/10 01:39:45;;;;;;;21.60;8.85;;;;;;;6.91;72.08;101297.31;5011383;28;20033;-76
2023/01/10 01:42:25;;;;;;;21.70;9.50;;;;;;;6.97;72.27;101312.16;5024899;28;20452;-75
2023/01/10 01:45:12;;;;;;;20.50;9.50;;;;;;;6.95;71.93;101306.00;5023720;28;20108;-76
2023/01/10 01:47:45;;;;;;;21.90;9.43;;;;;;;6.93;72.48;101314.50;5011042;28;20038;-76
2023/01/10 01:50:41;;;;;;;24.45;9.73;;;;;;;6.97;73.00;101309.41;5010657;28;20030;-75
2023/01/10 01:53:12;;;;;;;24.40;8.75;;;;;;;6.96;72.98;101319.59;5029835;28;20119;-75
2023/01/10 01:55:38;;;;;;;16.13;7.45;;;;;;;7.00;72.58;101318.09;5028236;28;20504;-76
2023/01/10 01:58:09;;;;;;;19.80;7.28;;;;;;;6.98;73.30;101325.72;5028411;28;20064;-76
2023/01/10 02:00:34;;;;;;;16.25;7.03;;;;;;;7.00;72.64;101315.34;5030019;28;20059;-75
2023/01/10 02:03:01;;;;;;;20.80;6.70;;;;;;;7.04;73.49;101322.09;5018946;28;20029;-76
2023/01/10 02:05:26;;;;;;;16.33;6.03;;;;;;;7.05;73.47;101320.19;5018403;28;20034;-76
2023/01/10 02:07:55;;;;;;;15.85;5.53;;;;;;;7.06;72.94;101325.47;5028369;28;20432;-75
2023/01/10 02:10:29;;;;;;;15.85;5.05;;;;;;;7.06;73.30;101319.97;5017158;28;20033;-75
2023/01/10 02:13:00;;;;;;;18.05;5.88;;;;;;;7.08;73.20;101320.59;5029888;28;20113;-76
2023/01/10 02:15:25;;;;;;;15.23;5.47;;;;;;;7.06;73.49;101336.53;5025957;28;20032;-75
2023/01/10 02:17:51;;;;;;;13.55;5.22;;;;;;;7.05;74.01;101340.34;5014585;28;20087;-75
2023/01/10 02:20:20;;;;;;;16.55;5.00;;;;;;;7.06;73.58;101344.81;5031219;28;20041;-76
2023/01/10 02:23:26;;;;;;;15.82;5.15;;;;;;;7.09;73.87;101336.09;5033068;28;20486;-75
2023/01/10 02:26:16;;;;;;;11.98;4.40;;;;;;;7.08;74.00;101334.41;5034159;28;20026;-76
2023/01/10 02:28:59;;;;;;;16.42;4.68;;;;;;;7.10;73.44;101337.78;5032449;28;20036;-75
2023/01/10 02:31:43;;;;;;;;;;;;;;;7.20;73.72;101331.81;5018319;28;20481;-75
2023/01/10 02:34:19;;;;;;;15.25;3.97;;;;;;;7.09;72.85;101335.25;5037206;28;19920;-76
2023/01/10 02:36:59;;;;;;;12.82;4.15;;;;;;;7.04;72.84;101330.38;5032566;28;20040;-76
2023/01/10 02:39:35;;;;;;;14.27;4.35;;;;;;;7.05;73.61;101331.22;5033630;28;20063;-76
2023/01/10 02:42:10;;;;;;;16.85;4.35;;;;;;;7.04;73.54;101332.31;5035788;28;20057;-76
2023/01/10 02:44:53;;;;;;;13.75;3.90;;;;;;;7.06;73.13;101332.91;5034872;28;20037;-75
2023/01/10 02:47:19;;;;;;;13.70;4.18;;;;;;;7.02;73.84;101335.25;5034145;28;20385;-76
2023/01/10 02:49:49;;;;;;;18.88;4.63;;;;;;;7.04;72.96;101335.06;5032989;28;20029;-76
2023/01/10 02:52:26;;;;;;;15.38;4.20;;;;;;;7.02;72.97;101337.19;5031154;28;20109;-76
2023/01/10 02:54:57;;;;;;;15.05;3.95;;;;;;;6.99;73.40;101348.66;5016350;28;20044;-75
2023/01/10 02:57:41;;;;;;;14.85;4.47;;;;;;;6.96;72.73;101343.59;5034385;28;20048;-75
2023/01/10 03:00:21;;;;;;;17.52;4.78;;;;;;;6.93;72.86;101360.56;5034105;28;20037;-75
2023/01/10 03:03:24;;;;;;;17.35;4.13;;;;;;;6.89;73.13;101362.91;5031420;28;20156;-76
2023/01/10 03:06:10;;;;;;;;;;;;;;;7.05;72.81;101358.84;5034276;28;20056;-76
2023/01/10 03:08:52;;;;;;;11.95;4.40;;;;;;;6.95;72.59;101363.94;5033641;28;19924;-75
2023/01/10 03:11:38;;;;;;;15.48;4.20;;;;;;;6.87;72.71;101376.91;5033084;28;20445;-76
2023/01/10 03:14:07;;;;;;;13.98;3.72;;;;;;;6.87;73.07;101376.06;5032624;28;20482;-76
2023/01/10 03:16:35;;;;;;;9.82;3.15;;;;;;;6.87;72.53;101379.66;5034654;28;20041;-76
2023/01/10 03:19:06;;;;;;;12.75;3.30;;;;;;;6.85;72.63;101386.50;5031117;28;20033;-76
2023/01/10 03:21:33;;;;;;;12.65;3.47;;;;;;;6.82;72.91;101398.78;5029904;28;20531;-76
2023/01/10 03:24:04;;;;;;;12.45;4.00;;;;;;;6.81;72.84;101402.63;5033270;28;20033;-76
2023/01/10 03:26:41;;;;;;;12.88;3.92;;;;;;;6.81;73.13;101401.78;5031180;28;20170;-76
2023/01/10 03:29:10;;;;;;;19.27;4.18;;;;;;;6.81;73.14;101404.53;5031633;28;20022;-76
2023/01/10 03:31:44;;;;;;;14.02;3.97;;;;;;;6.82;72.99;101407.06;5032329;28;20037;-76
2023/01/10 03:34:11;;;;;;;15.25;4.57;;;;;;;6.85;73.21;101411.31;5020016;28;20079;-76
2023/01/10 03:36:44;;;;;;;19.00;4.18;;;;;;;6.82;72.96;101414.50;5030258;28;20032;-76
2023/01/10 03:39:22;;;;;;;13.43;3.67;;;;;;;6.78;73.48;101403.03;5031574;28;20542;-76
2023/01/10 03:41:51;;;;;;;16.95;4.22;;;;;;;6.81;73.26;101412.81;5031639;28;20022;-76
2023/01/10 03:44:45;;;;;;;14.38;4.45;;;;;;;6.84;72.74;101410.47;5024997;28;20036;-76
2023/01/10 03:47:19;;;;;;;11.85;3.95;;;;;;;6.88;72.83;101416.41;5032908;28;20053;-76
2023/01/10 03:49:49;;;;;;;11.30;3.63;;;;;;;6.87;72.93;101425.72;5027808;28;20048;-76
2023/01/10 03:52:17;;;;;;;19.08;4.63;;;;;;;6.90;72.91;101425.31;5031234;28;20064;-76
2023/01/10 03:54:44;;;;;;;16.52;4.25;;;;;;;6.87;72.90;101425.72;5026095;28;20022;-76
2023/01/10 03:57:18;;;;;;;11.35;3.55;;;;;;;6.88;72.98;101430.22;5017501;28;20840;-76
2023/01/10 03:59:44;;;;;;;15.27;4.30;;;;;;;6.89;72.95;101434.66;5027209;28;20030;-76
2023/01/10 04:02:09;;;;;;;19.52;4.20;;;;;;;6.90;73.54;101444.63;5028447;28;20033;-76
2023/01/10 04:04:34;;;;;;;16.90;4.70;;;;;;;6.92;73.04;101445.28;5030629;28;20025;-76
2023/01/10 04:06:59;;;;;;;16.85;3.90;;;;;;;6.88;73.13;101458.66;5031779;28;20385;-76
2023/01/10 04:09:25;;;;;;;16.55;3.90;;;;;;;6.88;72.87;101449.53;5031655;28;20037;-76
2023/01/10 04:11:50;;;;;;;18.83;4.38;;;;;;;6.89;73.16;101459.50;5028757;28;20564;-76
2023/01/10 04:14:15;;;;;;;15.05;4.40;;;;;;;6.86;72.81;101458.00;5032265;28;20079;-76
2023/01/10 04:16:41;;;;;;;17.90;3.83;;;;;;;6.89;72.45;101459.50;5029356;28;20099;-76
2023/01/10 04:19:06;;;;;;;19.20;4.88;;;;;;;6.91;73.06;101467.56;5025767;28;20048;-75
2023/01/10 04:21:31;;;;;;;16.75;3.75;;;;;;;6.91;72.49;101471.16;5026817;28;20477;-76
2023/01/10 04:23:56;;;;;;;18.63;4.00;;;;;;;6.92;72.75;101483.91;5023743;28;20412;-76
2023/01/10 04:26:22;;;;;;;17.27;4.70;;;;;;;6.91;73.11;101475.81;5016510;28;20038;-76
2023/01/10 04:28:47;;;;;;;20.50;4.30;;;;;;;6.87;72.37;101476.25;5011872;28;20030;-76
2023/01/10 04:31:12;;;;;;;20.70;4.20;;;;;;;6.88;72.43;101479.88;5022495;28;20025;-75
2023/01/10 04:33:39;;;;;;;11.88;3.63;;;;;;;6.88;72.38;101472.44;5030880;28;20033;-76
2023/01/10 04:36:05;;;;;;;20.42;4.00;;;;;;;6.87;72.98;101476.25;5028177;28;20100;-76
2023/01/10 04:38:30;;;;;;;15.75;4.05;;;;;;;6.85;72.66;101466.50;5031545;28;20179;-76
2023/01/10 04:40:56;;;;;;;18.58;4.70;;;;;;;6.87;72.75;101464.38;5032106;28;20824;-76
2023/01/10 04:43:23;;;;;;;20.23;4.28;;;;;;;6.85;72.58;101459.06;5031228;28;20025;-76
2023/01/10 04:45:49;;;;;;;20.90;4.28;;;;;;;6.85;72.29;101463.75;5025063;28;20152;-76
2023/01/10 04:48:14;;;;;;;19.27;3.80;;;;;;;6.86;72.85;101463.53;5025635;28;20108;-75
2023/01/10 04:50:39;;;;;;;23.90;5.05;;;;;;;6.86;72.05;101479.22;5017902;28;20345;-75
2023/01/10 04:53:05;;;;;;;17.63;4.30;;;;;;;6.84;72.63;101497.94;5025473;28;20045;-76
2023/01/10 04:55:32;;;;;;;21.98;5.57;;;;;;;6.85;73.03;101505.13;5031137;28;20033;-76
2023/01/10 04:57:57;;;;;;;21.30;4.30;;;;;;;6.88;72.11;101486.25;5029698;28;20043;-76
2023/01/10 05:00:22;;;;;;;17.08;3.70;;;;;;;6.89;72.67;101481.56;5030968;28;20112;-75
2023/01/10 05:02:48;;;;;;;21.52;4.55;;;;;;;6.87;72.60;101470.72;5031878;28;20045;-76
2023/01/10 05:05:13;;;;;;;23.05;5.03;;;;;;;6.83;72.00;101471.38;5031284;28;20025;-75
2023/01/10 05:07:39;;;;;;;22.25;4.57;;;;;;;6.84;72.09;101478.63;5027689;28;20021;-75
2023/01/10 05:10:07;;;;;;;22.80;4.45;;;;;;;6.83;72.68;101483.25;5025258;28;20079;-76
2023/01/10 05:12:32;;;;;;;18.63;4.00;;;;;;;6.83;72.48;101494.28;5029170;28;20076;-75
2023/01/10 05:14:58;;;;;;;20.52;4.47;;;;;;;6.88;72.44;101505.56;5031546;28;20111;-75
2023/01/10 05:17:23;;;;;;;22.15;4.68;;;;;;;6.86;72.36;101512.34;5022021;28;20685;-75
2023/01/10 05:19:48;;;;;;;19.90;4.30;;;;;;;6.83;71.94;101529.31;5030382;28;20473;-75
2023/01/10 05:22:14;;;;;;;18.38;4.13;;;;;;;6.83;72.66;101535.69;5031378;28;20029;-76
2023/01/10 05:24:39;;;;;;;16.88;4.30;;;;;;;6.83;72.64;101538.44;5025340;28;20097;-76
2023/01/10 05:27:04;;;;;;;27.98;4.85;;;;;;;6.88;72.46;101537.84;5020840;28;20033;-76
2023/01/10 05:29:31;;;;;;;21.27;4.68;;;;;;;6.84;72.66;101540.16;5027143;28;20034;-76
2023/01/10 05:31:56;;;;;;;22.45;4.60;;;;;;;6.83;72.81;101545.88;5028682;28;20546;-76
2023/01/10 05:34:22;;;;;;;28.83;4.53;;;;;;;6.83;72.33;101538.44;5030239;28;20034;-76
2023/01/10 05:36:47;;;;;;;20.50;4.50;;;;;;;6.84;72.84;101536.56;5029571;28;20061;-76
2023/01/10 05:39:12;;;;;;;22.65;4.57;;;;;;;6.83;72.38;101538.44;5026312;28;20119;-76
2023/01/10 05:41:39;;;;;;;26.60;4.32;;;;;;;6.80;72.45;101535.28;5029452;28;20040;-76
2023/01/10 05:44:04;;;;;;;23.80;4.45;;;;;;;6.77;72.54;101536.53;5031198;28;20021;-76
2023/01/10 05:46:30;;;;;;;21.85;4.82;;;;;;;6.77;72.73;101547.59;5016700;28;20030;-76
2023/01/10 05:48:55;;;;;;;24.95;4.82;;;;;;;6.79;72.19;101552.88;5018234;28;20030;-76
2023/01/10 05:51:20;;;;;;;23.83;4.85;;;;;;;6.82;72.43;101555.22;5023889;28;20046;-76
2023/01/10 05:53:45;;;;;;;23.05;4.15;;;;;;;6.81;72.81;101564.56;5031580;28;20025;-76
2023/01/10 05:56:11;;;;;;;19.10;4.57;;;;;;;6.82;72.17;101560.75;5024855;28;20049;-76
2023/01/10 05:58:36;;;;;;;19.48;4.30;;;;;;;6.84;71.75;101562.25;5015542;28;20497;-76
2023/01/10 06:01:01;;;;;;;23.23;5.25;;;;;;;6.85;72.98;101576.88;5019343;28;20120;-76
2023/01/10 06:03:27;;;;;;;21.83;4.50;;;;;;;6.86;72.31;101564.78;5034778;28;20058;-76
2023/01/10 06:05:55;;;;;;;25.25;5.10;;;;;;;6.84;71.83;101581.56;5032924;28;20499;-76
2023/01/10 06:08:21;;;;;;;22.15;4.45;;;;;;;6.87;72.21;101566.47;5030462;28;20026;-76
2023/01/10 06:10:47;;;;;;;27.35;4.72;;;;;;;6.86;72.03;101573.91;5014551;28;20113;-76
2023/01/10 06:13:12;;;;;;;22.73;5.28;;;;;;;6.81;71.82;101570.94;5029379;28;20449;-76
2023/01/10 06:15:38;;;;;;;22.50;4.50;;;;;;;6.80;72.01;101574.75;5025133;28;20033;-76
2023/01/10 06:18:03;;;;;;;22.98;4.55;;;;;;;6.81;72.12;101567.34;5024197;28;20420;-76
2023/01/10 06:20:29;;;;;;;25.52;5.30;;;;;;;6.77;71.70;101574.34;5033724;28;20065;-76
2023/01/10 06:22:54;;;;;;;25.13;4.40;;;;;;;6.75;72.04;101570.91;5031908;28;20477;-77
2023/01/10 06:25:20;;;;;;;23.20;4.60;;;;;;;6.73;72.43;101576.66;5024751;28;20017;-77
2023/01/10 06:27:45;;;;;;;24.45;5.00;;;;;;;6.72;72.54;101574.97;5031133;28;20358;-77
2023/01/10 06:30:12;;;;;;;16.40;3.78;;;;;;;6.74;71.97;101581.09;5031761;28;20029;-77
2023/01/10 06:32:39;;;;;;;24.00;4.97;;;;;;;6.76;72.06;101589.16;5031879;28;20113;-77
2023/01/10 06:35:05;;;;;;;20.70;4.50;;;;;;;6.81;72.37;101589.41;5030046;28;20467;-78
2023/01/10 06:37:30;;;;;;;23.88;4.88;;;;;;;6.81;72.21;101587.50;5025317;28;20076;-77
2023/01/10 06:39:56;;;;;;;24.23;4.47;;;;;;;6.77;72.16;101597.25;5021495;28;20184;-77
2023/01/10 06:42:21;;;;;;;24.33;4.55;;;;;;;6.73;71.63;101590.44;5028307;28;20555;-77
2023/01/10 06:44:46;;;;;;;24.73;4.93;;;;;;;6.76;71.88;101590.03;5032309;28;20045;-77
2023/01/10 06:47:12;;;;;;;24.55;5.00;;;;;;;6.76;71.47;101603.84;5028196;28;20112;-78
2023/01/10 06:49:37;;;;;;;26.10;5.15;;;;;;;6.77;71.39;101599.16;5029451;28;20543;-77
2023/01/10 06:52:02;;;;;;;23.15;4.88;;;;;;;6.75;71.48;101604.03;5020611;28;20073;-77
2023/01/10 06:54:28;;;;;;;18.70;4.63;;;;;;;6.69;71.13;101604.88;5020590;28;20037;-77
2023/01/10 06:56:53;;;;;;;25.67;4.68;;;;;;;6.68;71.56;101622.47;5030001;28;20156;-78
2023/01/10 06:59:18;;;;;;;20.63;4.70;;;;;;;6.65;71.26;101618.25;5020995;28;20689;-77
2023/01/10 07:01:43;;;;;;;22.10;4.55;;;;;;;6.66;70.95;101628.22;5026204;28;20029;-77
2023/01/10 07:04:09;;;;;;;20.63;4.60;;;;;;;6.67;71.03;101634.56;5025499;28;20719;-77
2023/01/10 07:06:38;;;;;;;24.52;4.43;;;;;;;6.60;70.62;101631.78;5027458;28;20033;-77
2023/01/10 07:09:05;;;;;;;25.45;4.70;;;;;;;6.60;71.11;101643.69;5027474;28;20033;-77
2023/01/10 07:11:31;;;;;;;20.67;4.70;;;;;;;6.62;71.10;101655.34;5028169;28;20033;-74
2023/01/10 07:13:56;;;;;;;22.02;5.22;;;;;;;6.62;71.03;101657.25;5028106;28;20389;-76
2023/01/10 07:16:21;;;;;;;25.80;4.68;;;;;;;6.63;71.26;101656.19;5030923;28;20056;-77
2023/01/10 07:18:47;;;;;;;25.20;5.05;;;;;;;6.64;71.20;101658.78;5029533;28;20155;-76
2023/01/10 07:21:12;;;;;;;19.77;4.32;;;;;;;6.64;71.49;101664.28;5028060;28;20083;-76
2023/01/10 07:23:38;;;;;;;21.98;4.72;;;;;;;6.64;71.09;101657.91;5030121;28;20021;-76
2023/01/10 07:26:06;;;;;;;17.90;4.75;;;;;;;6.64;70.69;101675.31;5022864;28;20029;-76
2023/01/10 07:28:35;;;;;;;22.30;4.70;;;;;;;6.66;70.67;101677.03;5021622;28;20453;-77
2023/01/10 07:31:02;;;;;;;24.27;4.55;;;;;;;6.59;71.35;101676.97;5018176;28;20025;-75
2023/01/10 07:33:28;;;;;;;18.63;4.60;;;;;;;6.60;71.09;101685.06;5031389;28;20029;-77
2023/01/10 07:35:54;;;;;;;18.45;4.47;;;;;;;6.60;70.74;101685.06;5032335;28;20163;-78
2023/01/10 07:38:20;;;;;;;27.33;4.90;;;;;;;6.62;70.84;101690.38;5027686;28;20477;-76
2023/01/10 07:40:45;;;;;;;22.30;4.78;;;;;;;6.62;71.06;101705.00;5032427;28;20087;-75
2023/01/10 07:43:10;;;;;;;21.35;5.20;;;;;;;6.63;71.06;101701.19;5025027;28;20025;-74
2023/01/10 07:45:36;;;;;;;26.15;5.28;;;;;;;6.59;70.55;101691.63;5017851;28;20854;-74
2023/01/10 07:48:06;;;;;;;20.45;4.80;;;;;;;6.57;70.51;101707.53;5013366;28;20049;-75
2023/01/10 07:50:35;;;;;;;23.98;4.57;;;;;;;6.58;71.37;101705.63;5015081;28;20393;-74
2023/01/10 07:53:02;;;;;;;23.73;4.80;;;;;;;6.55;70.57;101704.13;5018502;28;20069;-79
2023/01/10 07:55:28;;;;;;;23.20;5.03;;;;;;;6.57;71.15;101717.72;5029102;28;20030;-73
2023/01/10 07:57:54;;;;;;;33.10;5.30;;;;;;;6.55;71.06;101717.06;5025318;28;20033;-72
2023/01/10 08:00:20;;;;;;;23.42;5.28;;;;;;;6.50;70.28;101714.94;5027302;28;20070;-71
2023/01/10 08:02:46;;;;;;;24.27;4.35;;;;;;;6.50;71.17;101719.59;5029351;28;20033;-70
2023/01/10 08:05:14;;;;;;;24.63;4.95;;;;;;;6.48;71.27;101710.66;5022868;28;20033;-73
2023/01/10 08:07:39;;;;;;;23.85;5.25;;;;;;;6.50;71.34;101708.56;5026761;28;20029;-73
2023/01/10 08:10:05;;;;;;;21.50;4.45;;;;;;;6.43;71.15;101719.56;5027005;28;20087;-73
2023/01/10 08:12:31;;;;;;;17.90;4.32;;;;;;;6.43;71.04;101716.81;5023947;28;20026;-66
2023/01/10 08:14:57;;;;;;;22.33;4.55;;;;;;;6.41;71.38;101707.91;5028700;28;20033;-66
2023/01/10 08:17:23;;;;;;;19.60;4.68;;;;;;;6.42;70.52;101708.75;5022874;28;20037;-67
2023/01/10 08:19:48;;;;;;;22.58;4.90;;;;;;;6.41;71.59;101709.81;5022319;28;20044;-74
2023/01/10 08:22:14;;;;;;;18.20;4.35;;;;;;;6.39;70.88;101701.72;5027775;28;20044;-69
2023/01/10 08:24:39;;;;;;;22.55;4.28;;;;;;;6.40;71.07;101708.94;5026827;28;20377;-68
2023/01/10 08:27:04;;;;;;;21.60;4.40;;;;;;;6.42;71.50;101709.59;5028638;28;20038;-62
2023/01/10 08:29:31;;;;;;;30.45;5.05;;;;;;;6.44;70.63;101706.63;5030041;28;20140;-69
2023/01/10 08:31:58;;;;;;;24.98;4.97;;;;;;;6.46;70.69;101710.03;5031663;28;20029;-69
2023/01/10 08:34:27;;;;;;;21.85;4.30;;;;;;;6.43;70.31;101722.31;5019376;28;20041;-61
2023/01/10 08:36:53;;;;;;;22.73;4.38;;;;;;;6.46;71.10;101716.41;5025206;28;20136;-68
2023/01/10 08:39:21;;;;;;;21.17;4.22;;;;;;;6.49;70.36;101720.66;5028931;28;20037;-70
2023/01/10 08:41:46;;;;;;;23.23;4.78;;;;;;;6.50;71.03;101717.69;5029471;28;20038;-71
2023/01/10 08:44:14;;;;;;;16.17;4.35;;;;;;;6.53;71.03;101722.81;5029501;28;20120;-71
2023/01/10 08:46:40;;;;;;;22.58;4.57;;;;;;;6.52;70.43;101706.44;5030058;28;20049;-70
2023/01/10 08:49:05;;;;;;;24.10;4.53;;;;;;;6.50;70.69;101709.41;5023575;28;20026;-69
2023/01/10 08:51:31;;;;;;;22.95;5.07;;;;;;;6.54;70.69;101713.47;5025518;28;20102;-69
2023/01/10 08:53:56;;;;;;;26.00;4.50;;;;;;;6.48;70.74;101710.66;5029109;28;20033;-68
2023/01/10 08:56:21;;;;;;;24.88;5.22;;;;;;;6.50;70.60;101711.31;5027143;28;20041;-69
2023/01/10 08:58:46;;;;;;;22.33;4.43;;;;;;;6.51;70.36;101707.50;5028333;28;20033;-71
2023/01/10 09:01:13;;;;;;;20.77;4.55;;;;;;;6.53;70.60;101706.25;5030501;28;20111;-72
2023/01/10 09:03:38;;;;;;;20.35;4.40;;;;;;;6.51;70.50;101704.75;5028873;28;20025;-72
2023/01/10 09:06:04;;;;;;;21.52;4.30;;;;;;;6.50;70.66;101701.13;5030765;28;20562;-71
2023/01/10 09:08:30;;;;;;;23.20;4.53;;;;;;;6.40;71.26;101708.94;5018801;28;20037;-70
2023/01/10 09:10:59;;;;;;;18.63;4.30;;;;;;;6.43;71.32;101700.25;5029393;28;20398;-71
2023/01/10 09:13:28;;;;;;;24.60;5.35;;;;;;;6.50;71.39;101695.63;5028767;28;20029;-72
2023/01/10 09:15:54;;;;;;;22.15;4.80;;;;;;;6.50;71.37;101695.63;5030875;28;20132;-71
2023/01/10 09:18:19;;;;;;;22.73;4.10;;;;;;;6.56;71.36;101693.94;5029711;28;20113;-70
2023/01/10 09:20:45;;;;;;;20.67;4.30;;;;;;;6.49;71.08;101693.94;5023232;28;20392;-68
2023/01/10 09:23:17;;;;;;;22.15;4.78;;;;;;;6.57;71.20;101695.66;5021304;28;20037;-68
2023/01/10 09:25:44;;;;;;;23.73;4.93;;;;;;;6.52;70.49;101693.50;5026521;28;20036;-69
2023/01/10 09:28:10;;;;;;;28.50;4.78;;;;;;;6.54;70.50;101699.69;5027235;28;20048;-67
2023/01/10 09:30:36;;;;;;;20.88;4.22;;;;;;;6.59;70.98;101693.53;5020938;28;20037;-69
2023/01/10 09:33:02;;;;;;;27.45;5.50;;;;;;;6.57;70.74;101695.66;5028646;28;20033;-67
2023/01/10 09:35:29;;;;;;;19.85;4.57;;;;;;;6.58;71.01;101689.09;5029898;28;20033;-70
2023/01/10 09:37:56;;;;;;;27.17;4.32;;;;;;;6.60;70.74;101700.75;5025224;28;20036;-69
2023/01/10 09:41:05;;;;;;;26.70;4.63;;;;;;;6.68;70.85;101691.44;5021799;28;20036;-71
2023/01/10 09:43:44;;;;;;;19.20;4.35;;;;;;;6.70;70.80;101689.34;5016031;28;20049;-68
2023/01/10 09:46:31;;;;;;;25.67;5.70;;;;;;;6.73;70.50;101697.22;5024916;28;20543;-70
2023/01/10 09:48:56;;;;;;;20.05;4.63;;;;;;;6.74;70.88;101690.63;5029775;28;20037;-69
2023/01/10 09:51:35;;;;;;;18.63;5.20;;;;;;;6.73;70.81;101694.44;5025940;28;20073;-67
2023/01/10 09:54:05;;;;;;;20.08;4.35;;;;;;;6.75;70.75;101690.41;5020561;28;20067;-68
2023/01/10 09:56:32;;;;;;;17.98;4.20;;;;;;;6.76;70.19;101694.88;5027535;28;20026;-69
2023/01/10 09:58:59;;;;;;;20.23;4.38;;;;;;;6.80;70.66;101685.13;5027522;28;20052;-68
2023/01/10 10:01:35;;;;;;;22.80;4.22;;;;;;;6.85;70.61;101684.50;5016629;28;20026;-67
2023/01/10 10:04:06;;;;;;;14.77;3.63;;;;;;;6.83;70.36;101704.00;5027838;28;20052;-68
2023/01/10 10:06:34;;;;;;;17.63;4.75;;;;;;;6.86;70.47;101694.47;5028357;28;20469;-69
2023/01/10 10:09:00;;;;;;;20.58;3.97;;;;;;;6.84;70.15;101700.22;5029105;28;20095;-67
2023/01/10 10:11:25;;;;;;;21.25;4.93;;;;;;;6.83;70.66;101694.88;5028028;28;20469;-68
2023/01/10 10:14:12;;;;;;;19.33;4.85;;;;;;;6.84;70.97;101680.91;5028010;28;20079;-67
2023/01/10 10:17:26;;;;;;;23.08;4.13;;;;;;;6.92;70.58;101676.22;5023325;28;20057;-68
2023/01/10 10:19:54;;;;;;;20.58;4.03;;;;;;;6.88;70.60;101665.63;5013852;28;20636;-68
2023/01/10 10:22:38;;;;;;;26.08;4.88;;;;;;;6.90;70.75;101668.16;5013853;28;20386;-66
2023/01/10 10:25:30;;;;;;;20.08;4.53;;;;;;;6.93;71.18;101661.38;5019580;28;20044;-67
2023/01/10 10:28:30;;;;;;;22.13;4.23;;;;;;;6.91;70.68;101664.34;5018566;28;20050;-67
2023/01/10 10:31:07;;;;;;;17.73;4.30;;;;;;;6.86;70.89;101669.63;5025862;28;20022;-68
2023/01/10 10:34:04;;;;;;;19.60;4.10;;;;;;;6.82;70.82;101665.59;5027494;28;20042;-68
2023/01/10 10:36:42;;;;;;;21.48;4.82;;;;;;;6.90;71.51;101657.13;5021765;28;20050;-68
2023/01/10 10:39:15;;;;;;;19.17;4.80;;;;;;;6.91;70.96;101655.22;5029249;28;20033;-69
2023/01/10 10:41:43;;;;;;;16.33;3.55;;;;;;;6.92;71.29;101646.75;5029563;28;20030;-69
2023/01/10 10:44:43;;;;;;;24.00;4.93;;;;;;;6.95;70.87;101635.25;5032196;28;20362;-69
2023/01/10 10:47:14;;;;;;;24.20;4.88;;;;;;;6.95;71.03;101629.72;5031508;28;20041;-68
2023/01/10 10:49:54;;;;;;;22.52;4.38;;;;;;;6.97;71.08;101624.03;5025925;28;20052;-69
2023/01/10 10:52:31;;;;;;;18.40;3.85;;;;;;;6.96;71.51;101627.84;5031243;28;20401;-67
2023/01/10 10:54:57;;;;;;;26.35;4.22;;;;;;;6.98;71.70;101623.81;5029148;28;20025;-70
2023/01/10 10:57:26;;;;;;;22.42;4.43;;;;;;;7.01;71.63;101619.78;5027914;28;20473;-70
2023/01/10 10:59:55;;;;;;;16.40;4.55;;;;;;;7.01;71.99;101608.75;5028313;28;20034;-69
2023/01/10 11:02:27;;;;;;;14.63;4.35;;;;;;;7.02;70.88;101616.81;5031506;28;20033;-69
2023/01/10 11:04:57;;;;;;;22.33;5.20;;;;;;;7.01;71.38;101603.22;5023785;28;20372;-69
2023/01/10 11:07:24;;;;;;;22.83;4.38;;;;;;;7.03;71.72;101606.59;5030322;28;20296;-68
2023/01/10 11:12:23;;;;;;;19.98;4.28;;;;;;;7.03;71.51;101590.88;5028793;28;20040;-71
2023/01/10 11:14:51;;;;;;;21.90;4.53;;;;;;;7.00;71.88;101598.78;5032358;28;20025;-69
2023/01/10 11:17:19;;;;;;;14.60;3.83;;;;;;;7.00;70.88;101590.50;5029361;28;20025;-69
2023/01/10 11:20:16;;;;;;;25.98;4.68;;;;;;;7.09;72.35;101592.81;5031851;28;20087;-71
2023/01/10 11:22:50;;;;;;;27.35;4.57;;;;;;;7.04;71.06;101589.00;5020909;28;20358;-74
2023/01/10 11:25:19;;;;;;;15.70;4.07;;;;;;;7.01;71.53;101592.19;5024452;28;20492;-70
2023/01/10 11:27:57;;;;;;;19.63;4.82;;;;;;;7.03;71.49;101585.38;5031766;28;20132;-68
2023/01/10 11:30:26;;;;;;;17.67;4.22;;;;;;;7.03;71.47;101587.28;5019461;28;20459;-71
2023/01/10 11:33:00;;;;;;;20.23;4.72;;;;;;;7.06;71.57;101584.94;5021791;28;20022;-73
2023/01/10 11:35:36;;;;;;;24.23;5.00;;;;;;;7.06;71.64;101582.19;5024201;28;20041;-71
2023/01/10 11:38:18;;;;;;;27.38;5.13;;;;;;;7.11;71.86;101579.66;5030723;28;20120;-71
2023/01/10 11:41:05;;;;;;;19.45;4.78;;;;;;;7.14;71.72;101581.97;5022032;28;20167;-69
2023/01/10 11:43:40;;;;;;;26.23;5.57;;;;;;;7.15;71.60;101577.28;5025269;28;20028;-69
2023/01/10 11:46:19;;;;;;;24.80;5.30;;;;;;;7.13;71.93;101574.75;5029702;28;20033;-72